Time;durP1;ratioP1;P1;durP2;ratioP2;P2;SDS_P1;SDS_P2;PMS_P1;PMS_P2;Temp;Humidity;BMP_temperature;BMP_pressure;BME280_temperature;BME280_humidity;BME280_pressure;Samples;Min_cycle;Max_cycle;Signal;HPM_P1;HPM_P2
2021/03/25 00:02:02;;;;;;;84.05;42.28;;;9.40;99.90;;;;;;5016751;28;20176;-76
2021/03/25 00:04:28;;;;;;;87.72;42.30;;;9.40;99.90;;;;;;5016690;28;20667;-76
2021/03/25 00:06:57;;;;;;;85.95;42.60;;;9.40;99.90;;;;;;5034633;28;20199;-75
2021/03/25 00:09:30;;;;;;;81.18;41.35;;;9.40;99.90;;;;;;5033920;28;20180;-76
2021/03/25 00:11:58;;;;;;;86.10;43.40;;;9.40;99.90;;;;;;5033908;28;20242;-76
2021/03/25 00:14:25;;;;;;;85.45;44.13;;;9.40;99.90;;;;;;5034026;28;20164;-76
2021/03/25 00:16:51;;;;;;;80.28;40.50;;;9.40;99.90;;;;;;5016342;28;20223;-76
2021/03/25 00:19:16;;;;;;;72.03;38.72;;;9.50;99.90;;;;;;5034104;28;20718;-76
2021/03/25 00:21:42;;;;;;;81.45;38.42;;;9.50;99.90;;;;;;5033779;28;20279;-76
2021/03/25 00:24:12;;;;;;;75.55;37.55;;;9.60;99.90;;;;;;5033590;28;20262;-76
2021/03/25 00:26:38;;;;;;;72.45;39.42;;;9.60;99.90;;;;;;5016284;28;20200;-76
2021/03/25 00:29:05;;;;;;;78.18;40.15;;;9.70;99.90;;;;;;5033887;28;20176;-75
2021/03/25 00:31:31;;;;;;;80.88;40.33;;;9.70;99.90;;;;;;5033986;28;20527;-75
2021/03/25 00:33:58;;;;;;;77.13;39.00;;;9.60;99.90;;;;;;5033478;28;20180;-76
2021/03/25 00:36:24;;;;;;;84.97;42.88;;;9.60;99.90;;;;;;5033827;28;20172;-77
2021/03/25 00:38:49;;;;;;;82.18;44.22;;;9.70;99.90;;;;;;5033527;28;20667;-76
2021/03/25 00:41:15;;;;;;;86.13;43.35;;;9.90;99.90;;;;;;5033750;28;20520;-75
2021/03/25 00:43:41;;;;;;;88.80;43.72;;;10.00;99.90;;;;;;5033628;28;20259;-75
2021/03/25 00:46:08;;;;;;;79.88;42.25;;;10.00;99.90;;;;;;5015960;28;20259;-75
2021/03/25 00:48:33;;;;;;;83.80;42.60;;;10.10;99.90;;;;;;5033439;28;20207;-75
2021/03/25 00:51:00;;;;;;;72.05;40.55;;;10.10;99.90;;;;;;4999725;28;20202;-75
2021/03/25 00:53:34;;;;;;;73.78;40.80;;;10.10;99.90;;;;;;5033129;28;20180;-75
2021/03/25 00:56:00;;;;;;;72.35;38.72;;;10.00;99.90;;;;;;5032949;28;20188;-75
2021/03/25 00:58:27;;;;;;;75.85;39.95;;;10.10;99.90;;;;;;5033274;28;20519;-75
2021/03/25 01:00:53;;;;;;;93.25;45.28;;;10.20;99.90;;;;;;5033354;28;20176;-75
2021/03/25 01:03:22;;;;;;;77.18;41.97;;;10.20;99.90;;;;;;5033053;28;20667;-75
2021/03/25 01:05:48;;;;;;;81.88;40.92;;;10.20;99.90;;;;;;5033260;28;20229;-75
2021/03/25 01:08:14;;;;;;;81.07;42.30;;;10.20;99.90;;;;;;4995243;28;20197;-75
2021/03/25 01:10:48;;;;;;;82.18;43.88;;;10.20;99.90;;;;;;5013802;28;20180;-75
2021/03/25 01:13:19;;;;;;;88.68;46.08;;;10.10;99.90;;;;;;5020796;28;20179;-76
2021/03/25 01:15:45;;;;;;;77.07;39.80;;;10.10;99.90;;;;;;5033052;28;20172;-75
2021/03/25 01:18:10;;;;;;;73.03;39.03;;;10.10;99.90;;;;;;5032973;28;20305;-75
2021/03/25 01:20:39;;;;;;;72.22;38.35;;;10.20;99.90;;;;;;5033319;28;20309;-75
2021/03/25 01:23:05;;;;;;;71.15;39.83;;;10.20;99.90;;;;;;5033098;28;20172;-75
2021/03/25 01:25:32;;;;;;;75.53;39.50;;;10.30;99.90;;;;;;5032636;28;20177;-75
2021/03/25 01:28:05;;;;;;;83.95;43.78;;;10.40;99.90;;;;;;5032671;28;20203;-75
2021/03/25 01:30:32;;;;;;;77.28;42.30;;;10.40;99.90;;;;;;5033149;28;20259;-75
2021/03/25 01:33:00;;;;;;;77.95;40.38;;;10.40;99.90;;;;;;5032724;28;20205;-75
2021/03/25 01:35:27;;;;;;;73.32;38.28;;;10.40;99.90;;;;;;5033006;28;20176;-75
2021/03/25 01:37:52;;;;;;;67.63;37.00;;;10.30;99.90;;;;;;5032786;28;20188;-75
2021/03/25 01:40:22;;;;;;;77.43;38.88;;;10.20;99.90;;;;;;5033158;28;20183;-75
2021/03/25 01:42:48;;;;;;;75.75;37.58;;;10.10;99.90;;;;;;5015135;28;20249;-75
2021/03/25 01:45:37;;;;;;;81.32;42.38;;;10.00;99.90;;;;;;5033009;28;20192;-75
2021/03/25 01:48:04;;;;;;;80.50;39.60;;;10.00;99.90;;;;;;5001450;28;20362;-75
2021/03/25 01:50:30;;;;;;;68.07;37.50;;;10.00;99.90;;;;;;5013264;28;20177;-75
2021/03/25 01:53:16;;;;;;;66.22;37.03;;;10.00;99.90;;;;;;5029832;28;20180;-75
2021/03/25 01:55:42;;;;;;;65.32;34.63;;;9.90;99.90;;;;;;5032669;28;20168;-75
2021/03/25 01:58:38;;;;;;;67.88;36.17;;;9.90;99.90;;;;;;5014814;28;20664;-75
2021/03/25 02:01:20;;;;;;;62.50;33.90;;;9.90;99.90;;;;;;5032677;28;20251;-75
2021/03/25 02:03:56;;;;;;;59.17;33.35;;;9.90;99.90;;;;;;5032594;28;20161;-75
2021/03/25 02:06:40;;;;;;;61.83;35.10;;;9.90;99.90;;;;;;5032081;28;20235;-74
2021/03/25 02:09:17;;;;;;;64.95;33.90;;;9.90;99.90;;;;;;5015545;28;20184;-75
2021/03/25 02:12:19;;;;;;;64.13;34.55;;;9.90;99.90;;;;;;5032536;28;20599;-75
2021/03/25 02:14:55;;;;;;;64.22;34.88;;;10.00;99.90;;;;;;5031996;28;20233;-75
2021/03/25 02:17:24;;;;;;;70.78;36.45;;;10.00;99.90;;;;;;5035194;28;20179;-75
2021/03/25 02:20:31;;;;;;;68.38;34.55;;;10.00;99.90;;;;;;5018467;28;20180;-75
2021/03/25 02:23:22;;;;;;;62.65;35.15;;;10.00;99.90;;;;;;5028361;28;20562;-75
2021/03/25 02:26:06;;;;;;;72.65;36.47;;;10.10;99.90;;;;;;5036151;28;20656;-75
2021/03/25 02:28:47;;;;;;;73.10;38.80;;;10.10;99.90;;;;;;5015482;28;20271;-75
2021/03/25 02:31:21;;;;;;;77.55;38.88;;;10.00;99.90;;;;;;5030671;28;20175;-75
2021/03/25 02:33:52;;;;;;;81.03;38.42;;;10.00;99.90;;;;;;5001343;28;20175;-75
2021/03/25 02:36:27;;;;;;;75.63;37.90;;;10.10;99.90;;;;;;5035838;28;20251;-75
2021/03/25 02:39:05;;;;;;;64.25;35.13;;;10.10;99.90;;;;;;5035928;28;20539;-75
2021/03/25 02:41:36;;;;;;;71.07;37.60;;;10.20;99.90;;;;;;5018090;28;20183;-75
2021/03/25 02:44:12;;;;;;;71.57;36.50;;;10.40;99.90;;;;;;5018250;28;20179;-75
2021/03/25 02:46:42;;;;;;;66.28;35.17;;;10.50;99.90;;;;;;5035236;28;20195;-75
2021/03/25 02:49:12;;;;;;;68.45;36.85;;;10.50;99.90;;;;;;5035509;28;20179;-75
2021/03/25 02:51:44;;;;;;;69.75;35.88;;;10.50;99.90;;;;;;5035481;28;20168;-75
2021/03/25 02:54:10;;;;;;;61.50;33.88;;;10.50;99.90;;;;;;5035797;28;20172;-75
2021/03/25 02:56:46;;;;;;;67.13;35.90;;;10.50;99.90;;;;;;5035410;28;20571;-75
2021/03/25 02:59:21;;;;;;;64.88;35.30;;;10.40;99.90;;;;;;5035868;28;20168;-75
2021/03/25 03:01:51;;;;;;;77.07;35.40;;;10.40;99.90;;;;;;5035232;28;20247;-75
2021/03/25 03:04:25;;;;;;;58.08;33.72;;;10.40;99.90;;;;;;5035600;28;20252;-75
2021/03/25 03:07:00;;;;;;;58.78;32.15;;;10.30;99.90;;;;;;5035085;28;20260;-75
2021/03/25 03:09:32;;;;;;;64.90;34.53;;;10.40;99.90;;;;;;5036032;28;20188;-75
2021/03/25 03:12:00;;;;;;;58.92;33.00;;;10.40;99.90;;;;;;5035295;28;20183;-75
2021/03/25 03:14:36;;;;;;;62.42;33.60;;;10.50;99.90;;;;;;5035448;28;20259;-75
2021/03/25 03:17:09;;;;;;;58.17;31.98;;;10.50;99.90;;;;;;5017258;28;20187;-75
2021/03/25 03:19:44;;;;;;;67.68;31.98;;;10.40;99.90;;;;;;5035186;28;20173;-75
2021/03/25 03:22:10;;;;;;;59.22;31.50;;;10.40;99.90;;;;;;5034193;28;20181;-75
2021/03/25 03:24:36;;;;;;;60.30;33.05;;;10.30;99.90;;;;;;5017574;28;20168;-75
2021/03/25 03:27:19;;;;;;;60.50;33.03;;;10.30;99.90;;;;;;5034939;28;20242;-75
2021/03/25 03:29:47;;;;;;;57.05;31.88;;;10.30;99.90;;;;;;5017226;28;20187;-75
2021/03/25 03:32:32;;;;;;;59.38;31.90;;;10.30;99.90;;;;;;5017316;28;20209;-75
2021/03/25 03:35:07;;;;;;;62.75;30.08;;;10.30;99.90;;;;;;5034890;28;20172;-75
2021/03/25 03:37:37;;;;;;;53.47;29.25;;;10.40;99.90;;;;;;5034844;28;20225;-75
2021/03/25 03:40:14;;;;;;;62.50;31.52;;;10.40;99.90;;;;;;5016887;28;20915;-75
2021/03/25 03:42:43;;;;;;;52.17;29.45;;;10.50;99.90;;;;;;5034855;28;20179;-75
2021/03/25 03:45:13;;;;;;;60.08;30.02;;;10.50;99.90;;;;;;5001093;28;20601;-75
2021/03/25 03:47:41;;;;;;;55.22;30.95;;;10.40;99.90;;;;;;5034501;28;20196;-75
2021/03/25 03:50:20;;;;;;;56.15;29.80;;;10.40;99.90;;;;;;5034340;28;20168;-75
2021/03/25 03:52:49;;;;;;;58.05;32.00;;;10.40;99.90;;;;;;5034396;28;20229;-75
2021/03/25 03:55:17;;;;;;;55.17;30.77;;;10.50;99.90;;;;;;5034789;28;20585;-75
2021/03/25 03:58:30;;;;;;;58.08;30.25;;;10.50;99.90;;;;;;5000601;28;20263;-76
2021/03/25 04:01:12;;;;;;;66.25;30.77;;;10.50;99.90;;;;;;4989361;28;20188;-75
2021/03/25 04:03:46;;;;;;;51.75;27.85;;;10.50;99.90;;;;;;5034554;28;20172;-75
2021/03/25 04:06:14;;;;;;;52.58;29.20;;;10.60;99.90;;;;;;5034161;28;20200;-75
2021/03/25 04:08:54;;;;;;;47.50;27.98;;;10.60;99.90;;;;;;5016495;28;20180;-75
2021/03/25 04:11:41;;;;;;;50.00;28.35;;;10.60;99.90;;;;;;5034129;28;20180;-75
2021/03/25 04:14:28;;;;;;;57.80;29.75;;;10.50;99.90;;;;;;5016694;28;20168;-76
2021/03/25 04:16:58;;;;;;;58.97;29.20;;;10.60;99.90;;;;;;5034122;28;20176;-75
2021/03/25 04:19:30;;;;;;;61.97;30.25;;;10.70;99.90;;;;;;5033882;28;20178;-75
2021/03/25 04:22:21;;;;;;;64.25;30.20;;;10.70;99.90;;;;;;5016358;28;20233;-75
2021/03/25 04:25:05;;;;;;;58.65;28.50;;;10.70;99.90;;;;;;5016294;28;20174;-75
2021/03/25 04:27:44;;;;;;;48.60;27.75;;;10.70;99.90;;;;;;5016168;28;20664;-75
2021/03/25 04:30:36;;;;;;;63.92;30.38;;;10.60;99.90;;;;;;5033590;28;20186;-75
2021/03/25 04:33:03;;;;;;;53.78;28.00;;;10.60;99.90;;;;;;5010600;28;20191;-75
2021/03/25 04:35:29;;;;;;;51.47;28.80;;;10.60;99.90;;;;;;5033818;28;20164;-75
2021/03/25 04:37:57;;;;;;;50.00;28.85;;;10.60;99.90;;;;;;4999428;28;20191;-75
2021/03/25 04:40:32;;;;;;;46.35;27.52;;;10.50;99.90;;;;;;5015387;28;20177;-75
2021/03/25 04:42:58;;;;;;;47.70;28.33;;;10.50;99.90;;;;;;5015920;28;20628;-75
2021/03/25 04:45:26;;;;;;;60.30;28.33;;;10.40;99.90;;;;;;5015895;28;20655;-75
2021/03/25 04:47:57;;;;;;;57.40;28.90;;;10.40;99.90;;;;;;5033358;28;20200;-75
2021/03/25 04:50:28;;;;;;;45.13;28.13;;;10.40;99.90;;;;;;5033730;28;20221;-75
2021/03/25 04:53:01;;;;;;;57.50;29.88;;;10.40;99.90;;;;;;5033580;28;20160;-75
2021/03/25 04:55:30;;;;;;;57.35;29.08;;;10.40;99.90;;;;;;5032985;28;20259;-75
2021/03/25 04:58:00;;;;;;;55.83;27.85;;;10.30;99.90;;;;;;5033507;28;20188;-75
2021/03/25 05:00:41;;;;;;;57.95;27.75;;;10.20;99.90;;;;;;5033623;28;20164;-76
2021/03/25 05:03:11;;;;;;;58.50;28.48;;;10.20;99.90;;;;;;5033331;28;20199;-75
2021/03/25 05:05:36;;;;;;;57.45;28.85;;;10.30;99.90;;;;;;5032978;28;20197;-75
2021/03/25 05:08:18;;;;;;;47.88;27.95;;;10.40;99.90;;;;;;5033085;28;20652;-75
2021/03/25 05:10:48;;;;;;;51.45;27.45;;;10.40;99.90;;;;;;5015789;28;20545;-75
2021/03/25 05:13:34;;;;;;;49.25;27.63;;;10.40;99.90;;;;;;5033306;28;20255;-75
2021/03/25 05:16:34;;;;;;;49.15;28.35;;;10.40;99.90;;;;;;5015303;28;20270;-75
2021/03/25 05:19:18;;;;;;;47.22;27.67;;;10.50;99.90;;;;;;5015352;28;20187;-75
2021/03/25 05:21:47;;;;;;;53.45;27.38;;;10.40;99.90;;;;;;5033247;28;20164;-75
2021/03/25 05:24:24;;;;;;;48.60;26.25;;;10.50;99.90;;;;;;5015191;28;20179;-75
2021/03/25 05:27:07;;;;;;;48.30;27.33;;;10.40;99.90;;;;;;5033307;28;20683;-75
2021/03/25 05:29:33;;;;;;;44.65;24.85;;;10.60;99.90;;;;;;5032819;28;20176;-75
2021/03/25 05:31:59;;;;;;;53.10;26.42;;;10.60;99.90;;;;;;5015278;28;20637;-76
2021/03/25 05:34:26;;;;;;;48.47;26.80;;;10.60;99.90;;;;;;5015138;28;20625;-75
2021/03/25 05:36:55;;;;;;;52.28;26.73;;;10.60;99.90;;;;;;5015287;28;20207;-75
2021/03/25 05:39:21;;;;;;;49.65;26.20;;;10.60;99.90;;;;;;5032955;28;20208;-75
2021/03/25 05:42:09;;;;;;;50.15;25.33;;;10.50;99.90;;;;;;5015099;28;20219;-75
2021/03/25 05:45:18;;;;;;;45.70;23.55;;;10.50;99.90;;;;;;5032952;28;20160;-75
2021/03/25 05:48:06;;;;;;;46.60;24.52;;;10.50;99.90;;;;;;5033150;28;20203;-75
2021/03/25 05:50:56;;;;;;;47.45;23.77;;;10.50;99.90;;;;;;5013420;28;20165;-75
2021/03/25 05:53:43;;;;;;;47.17;24.85;;;10.40;99.90;;;;;;5017222;28;20525;-76
2021/03/25 05:56:27;;;;;;;42.78;24.00;;;10.50;99.90;;;;;;5036844;28;20179;-75
2021/03/25 05:58:59;;;;;;;46.28;23.98;;;10.50;99.90;;;;;;5036602;28;20746;-75
2021/03/25 06:01:47;;;;;;;55.80;24.20;;;10.60;99.90;;;;;;5036815;28;20199;-75
2021/03/25 06:04:17;;;;;;;45.80;24.90;;;10.60;99.90;;;;;;5036086;28;20233;-75
2021/03/25 06:06:49;;;;;;;45.00;24.67;;;10.70;99.90;;;;;;5036761;28;20213;-75
2021/03/25 06:09:39;;;;;;;44.67;24.05;;;10.70;99.90;;;;;;5018750;28;20189;-75
2021/03/25 06:12:36;;;;;;;41.80;23.50;;;10.70;99.90;;;;;;5018875;28;20177;-74
2021/03/25 06:15:20;;;;;;;42.45;22.38;;;10.70;99.90;;;;;;5018669;28;20208;-74
2021/03/25 06:18:01;;;;;;;44.13;22.75;;;10.70;99.90;;;;;;5036612;28;20172;-74
2021/03/25 06:21:08;;;;;;;48.50;23.15;;;10.70;99.90;;;;;;5036483;28;20267;-74
2021/03/25 06:24:00;;;;;;;46.38;23.77;;;10.60;99.90;;;;;;4937177;29;20651;-74
2021/03/25 06:26:54;;;;;;;48.35;23.30;;;10.60;99.90;;;;;;4936983;29;20207;-74
2021/03/25 06:29:42;;;;;;;35.92;21.60;;;10.70;99.90;;;;;;4987547;28;20193;-74
2021/03/25 06:32:22;;;;;;;43.60;22.95;;;10.80;99.90;;;;;;5016356;28;20256;-73
2021/03/25 06:35:04;;;;;;;41.83;23.20;;;10.80;99.90;;;;;;5029101;28;20175;-75
2021/03/25 06:37:29;;;;;;;36.72;21.80;;;10.70;99.90;;;;;;5036091;28;20168;-74
2021/03/25 06:39:57;;;;;;;40.65;22.42;;;10.70;99.90;;;;;;5018441;28;20186;-74
2021/03/25 06:42:29;;;;;;;49.60;22.92;;;10.60;99.90;;;;;;5018676;28;20176;-74
2021/03/25 06:45:03;;;;;;;42.47;21.55;;;10.60;99.90;;;;;;5035833;28;20176;-74
2021/03/25 06:47:48;;;;;;;42.90;21.65;;;10.60;99.90;;;;;;5035535;28;20227;-74
2021/03/25 06:50:35;;;;;;;43.25;22.25;;;10.70;99.90;;;;;;5036243;28;20529;-74
2021/03/25 06:53:31;;;;;;;54.15;21.80;;;10.70;99.90;;;;;;5034028;28;20180;-74
2021/03/25 06:56:15;;;;;;;43.13;22.38;;;10.70;99.90;;;;;;5007420;28;20180;-74
2021/03/25 06:58:51;;;;;;;45.63;21.75;;;10.70;99.90;;;;;;5011902;28;20203;-74
2021/03/25 07:01:35;;;;;;;39.25;22.10;;;10.70;99.90;;;;;;5035516;28;20167;-74
2021/03/25 07:04:18;;;;;;;49.55;23.55;;;10.70;99.90;;;;;;5035130;28;20183;-74
2021/03/25 07:06:45;;;;;;;45.42;23.48;;;10.80;99.90;;;;;;5035687;28;20238;-74
2021/03/25 07:09:11;;;;;;;41.90;22.08;;;10.80;99.90;;;;;;5017337;28;20609;-74
2021/03/25 07:11:38;;;;;;;44.63;23.48;;;10.70;99.90;;;;;;5035479;28;20196;-74
2021/03/25 07:14:10;;;;;;;44.00;24.52;;;10.60;99.90;;;;;;5035212;28;20204;-74
2021/03/25 07:16:43;;;;;;;57.70;26.20;;;10.50;99.90;;;;;;5035181;28;20164;-74
2021/03/25 07:19:15;;;;;;;56.03;27.77;;;10.50;99.90;;;;;;5035149;28;20176;-74
2021/03/25 07:21:42;;;;;;;53.88;26.67;;;10.60;99.90;;;;;;5035409;28;20168;-74
2021/03/25 07:24:12;;;;;;;56.80;28.42;;;10.60;99.90;;;;;;5035066;28;20168;-74
2021/03/25 07:26:46;;;;;;;51.75;27.23;;;10.70;99.90;;;;;;5035004;28;20557;-75
2021/03/25 07:29:12;;;;;;;54.03;27.67;;;10.90;99.90;;;;;;5034584;28;20175;-74
2021/03/25 07:31:46;;;;;;;47.17;25.98;;;11.10;99.90;;;;;;5034701;28;20219;-74
2021/03/25 07:34:45;;;;;;;52.78;26.48;;;11.20;99.90;;;;;;5016899;28;20178;-74
2021/03/25 07:37:14;;;;;;;48.33;25.98;;;11.10;99.90;;;;;;5016691;28;20194;-74
2021/03/25 07:39:51;;;;;;;56.80;26.98;;;11.10;99.90;;;;;;5034654;28;20218;-74
2021/03/25 07:42:31;;;;;;;47.97;27.17;;;11.10;99.90;;;;;;5034934;28;20168;-74
2021/03/25 07:45:15;;;;;;;53.42;28.02;;;11.00;99.90;;;;;;5016632;28;20208;-73
2021/03/25 07:47:41;;;;;;;50.63;27.38;;;11.10;99.90;;;;;;5034190;28;20568;-73
2021/03/25 07:50:30;;;;;;;50.95;26.67;;;11.10;99.90;;;;;;5016994;28;20172;-74
2021/03/25 07:52:56;;;;;;;48.15;26.27;;;11.00;99.90;;;;;;5017321;28;20164;-74
2021/03/25 07:55:23;;;;;;;48.85;26.30;;;10.90;99.90;;;;;;5033112;28;20263;-74
2021/03/25 07:57:51;;;;;;;50.17;25.90;;;10.90;99.90;;;;;;5034004;28;20537;-73
2021/03/25 08:00:20;;;;;;;50.20;24.90;;;10.90;99.90;;;;;;5016707;28;20179;-74
2021/03/25 08:02:46;;;;;;;43.97;25.42;;;11.00;99.90;;;;;;5033364;28;20251;-74
2021/03/25 08:05:30;;;;;;;40.13;23.80;;;11.10;99.90;;;;;;5000188;28;20595;-75
2021/03/25 08:07:59;;;;;;;39.67;21.63;;;11.10;99.90;;;;;;5016190;28;20260;-74
2021/03/25 08:10:35;;;;;;;32.38;22.17;;;11.10;99.90;;;;;;5033897;28;20184;-74
2021/03/25 08:13:25;;;;;;;35.42;21.05;;;11.20;99.90;;;;;;5016196;28;20167;-74
2021/03/25 08:16:09;;;;;;;30.15;19.80;;;11.40;99.90;;;;;;5033447;28;20179;-73
2021/03/25 08:18:37;;;;;;;33.28;20.13;;;11.50;99.90;;;;;;5016524;28;20710;-75
2021/03/25 08:21:33;;;;;;;32.47;20.02;;;11.60;99.90;;;;;;5034138;28;20505;-73
2021/03/25 08:24:36;;;;;;;34.70;20.45;;;11.60;99.90;;;;;;5033779;28;20655;-73
2021/03/25 08:27:39;;;;;;;25.85;18.55;;;11.60;99.90;;;;;;5033541;28;20286;-73
2021/03/25 08:30:32;;;;;;;34.20;19.20;;;11.60;99.90;;;;;;5033953;28;20558;-77
2021/03/25 08:33:04;;;;;;;29.80;19.38;;;11.70;99.90;;;;;;5016183;28;20262;-74
2021/03/25 08:35:52;;;;;;;27.13;19.08;;;11.80;99.90;;;;;;5035945;28;20207;-76
2021/03/25 08:38:33;;;;;;;28.45;19.45;;;11.90;99.90;;;;;;5033600;28;20172;-75
2021/03/25 08:41:11;;;;;;;34.33;19.60;;;12.00;99.90;;;;;;5012738;28;20200;-75
2021/03/25 08:44:01;;;;;;;26.92;18.90;;;12.20;99.90;;;;;;4996946;28;20637;-76
2021/03/25 08:46:41;;;;;;;29.77;18.15;;;12.60;99.90;;;;;;5027523;28;20235;-76
2021/03/25 08:49:17;;;;;;;28.90;18.88;;;12.80;99.90;;;;;;5033738;28;20175;-76
2021/03/25 08:51:44;;;;;;;28.63;18.27;;;12.90;99.90;;;;;;5033287;28;20191;-76
2021/03/25 08:54:20;;;;;;;32.60;17.77;;;12.90;99.90;;;;;;5033397;28;20176;-76
2021/03/25 08:56:56;;;;;;;23.20;14.82;;;12.90;99.90;;;;;;5033378;28;20188;-77
2021/03/25 08:59:30;;;;;;;23.10;14.52;;;12.90;99.90;;;;;;5033688;28;20168;-76
2021/03/25 09:02:08;;;;;;;23.10;15.18;;;12.60;99.90;;;;;;5033666;28;20247;-77
2021/03/25 09:05:07;;;;;;;21.85;13.88;;;12.40;99.90;;;;;;5032954;28;20180;-76
2021/03/25 09:07:36;;;;;;;24.13;14.73;;;12.50;99.90;;;;;;5030576;28;20208;-77
2021/03/25 09:10:28;;;;;;;20.13;13.27;;;12.80;99.90;;;;;;5015554;28;20176;-74
2021/03/25 09:12:54;;;;;;;14.40;11.05;;;13.20;99.90;;;;;;5015560;28;20203;-79
2021/03/25 09:15:20;;;;;;;12.20;10.35;;;13.20;99.90;;;;;;5032656;28;20200;-76
2021/03/25 09:17:57;;;;;;;16.25;10.93;;;13.00;99.90;;;;;;5033058;28;20172;-75
2021/03/25 09:20:32;;;;;;;19.35;11.70;;;12.70;99.90;;;;;;5015614;28;20214;-76
2021/03/25 09:23:20;;;;;;;16.95;12.30;;;12.50;99.90;;;;;;5032896;28;20179;-76
2021/03/25 09:25:45;;;;;;;13.90;11.95;;;12.60;99.90;;;;;;5013000;28;20172;-75
2021/03/25 09:28:19;;;;;;;16.10;13.10;;;12.60;99.90;;;;;;5032676;28;20203;-75
2021/03/25 09:30:45;;;;;;;14.27;12.68;;;12.40;99.90;;;;;;5012141;28;20179;-76
2021/03/25 09:33:35;;;;;;;15.32;11.82;;;12.40;99.90;;;;;;5026494;28;20181;-75
2021/03/25 09:36:01;;;;;;;16.55;12.68;;;12.40;99.90;;;;;;5026795;28;20314;-75
2021/03/25 09:38:32;;;;;;;17.38;12.20;;;12.40;99.90;;;;;;5032858;28;20247;-75
2021/03/25 09:41:00;;;;;;;17.08;12.07;;;12.50;99.90;;;;;;5014563;28;20318;-76
2021/03/25 09:43:26;;;;;;;17.42;12.40;;;12.60;99.90;;;;;;5032850;28;20196;-75
2021/03/25 09:45:53;;;;;;;18.35;13.57;;;12.90;99.90;;;;;;5015251;28;20250;-74
2021/03/25 09:48:28;;;;;;;21.77;14.35;;;13.20;99.90;;;;;;5032940;28;20203;-76
2021/03/25 09:51:17;;;;;;;19.85;14.10;;;13.40;99.90;;;;;;5014456;28;20198;-75
2021/03/25 09:53:55;;;;;;;15.02;13.15;;;13.60;99.90;;;;;;5032178;28;20663;-75
2021/03/25 09:56:29;;;;;;;20.58;13.40;;;13.90;99.90;;;;;;5014022;28;20191;-77
2021/03/25 09:58:58;;;;;;;19.88;13.85;;;13.90;99.90;;;;;;5032693;28;20226;-77
2021/03/25 10:01:39;;;;;;;16.50;12.63;;;13.80;99.90;;;;;;5032719;28;20213;-76
2021/03/25 10:04:38;;;;;;;17.27;12.93;;;13.60;99.90;;;;;;5032526;28;20539;-76
2021/03/25 10:07:13;;;;;;;15.05;12.02;;;13.50;99.90;;;;;;5007015;28;20212;-76
2021/03/25 10:09:59;;;;;;;22.40;11.98;;;13.50;99.90;;;;;;5032633;28;20168;-77
2021/03/25 10:12:44;;;;;;;17.73;13.85;;;13.40;99.90;;;;;;5032646;28;20164;-76
2021/03/25 10:15:37;;;;;;;16.88;13.10;;;13.30;99.90;;;;;;4995275;28;20188;-76
2021/03/25 10:18:10;;;;;;;21.02;12.40;;;14.50;99.90;;;;;;5031533;28;20176;-76
2021/03/25 10:20:48;;;;;;;17.67;13.13;;;17.40;99.90;;;;;;5015045;28;20168;-75
2021/03/25 10:23:25;;;;;;;15.63;12.20;;;16.90;99.90;;;;;;5032448;28;20632;-76
2021/03/25 10:25:55;;;;;;;16.40;12.32;;;16.40;99.90;;;;;;5032343;28;20639;-76
2021/03/25 10:28:25;;;;;;;15.80;12.05;;;16.10;99.90;;;;;;5029914;28;20216;-76
2021/03/25 10:31:06;;;;;;;13.13;11.98;;;16.20;99.90;;;;;;5014267;28;20541;-75
2021/03/25 10:33:34;;;;;;;12.20;10.77;;;17.10;99.90;;;;;;5032269;28;20247;-76
2021/03/25 10:36:03;;;;;;;12.13;10.65;;;17.40;99.90;;;;;;4998196;28;20176;-76
2021/03/25 10:38:44;;;;;;;16.05;11.35;;;17.00;99.90;;;;;;5017360;28;20168;-76
2021/03/25 10:41:18;;;;;;;11.57;10.52;;;16.70;99.90;;;;;;5035643;28;20172;-76
2021/03/25 10:43:49;;;;;;;13.10;11.20;;;16.80;99.90;;;;;;5035808;28;20184;-76
2021/03/25 10:46:29;;;;;;;11.73;10.65;;;16.40;99.90;;;;;;5018028;28;20176;-75
2021/03/25 10:49:01;;;;;;;14.45;12.38;;;15.90;99.90;;;;;;5036154;28;20172;-75
2021/03/25 10:51:29;;;;;;;16.38;13.40;;;15.30;99.90;;;;;;5035721;28;20187;-76
2021/03/25 10:54:04;;;;;;;18.13;13.30;;;15.20;99.90;;;;;;5035681;28;20187;-76
2021/03/25 10:56:39;;;;;;;15.27;13.00;;;15.50;99.90;;;;;;5016306;28;20196;-79
2021/03/25 10:59:09;;;;;;;15.73;11.65;;;19.00;99.90;;;;;;5032852;28;20179;-76
2021/03/25 11:01:37;;;;;;;17.63;11.30;;;22.10;99.90;;;;;;5035384;28;20164;-76
2021/03/25 11:04:24;;;;;;;15.23;11.43;;;21.90;99.90;;;;;;5034702;28;20714;-77
2021/03/25 11:06:51;;;;;;;10.90;9.35;;;21.10;99.90;;;;;;5024778;28;20277;-76
2021/03/25 11:09:26;;;;;;;12.90;10.50;;;21.20;99.90;;;;;;5035357;28;20251;-76
2021/03/25 11:11:59;;;;;;;11.18;10.07;;;20.50;99.90;;;;;;5034959;28;20698;-76
2021/03/25 11:14:40;;;;;;;18.63;10.98;;;19.30;99.90;;;;;;5016501;28;20176;-76
2021/03/25 11:17:15;;;;;;;15.63;11.50;;;18.10;99.90;;;;;;5035361;28;20179;-76
2021/03/25 11:19:42;;;;;;;16.67;11.70;;;17.30;99.90;;;;;;5016285;28;20189;-77
2021/03/25 11:22:11;;;;;;;12.20;10.93;;;16.90;99.90;;;;;;5016364;28;20208;-76
2021/03/25 11:24:38;;;;;;;15.70;11.40;;;16.90;99.90;;;;;;5034377;28;20172;-77
2021/03/25 11:27:14;;;;;;;17.05;11.63;;;17.20;99.90;;;;;;5016349;28;20203;-78
2021/03/25 11:29:43;;;;;;;13.93;9.85;;;18.00;99.90;;;;;;5034711;28;20628;-75
2021/03/25 11:32:18;;;;;;;9.73;8.85;;;18.10;99.90;;;;;;5034255;28;20190;-76
2021/03/25 11:34:46;;;;;;;10.85;8.93;;;18.10;99.90;;;;;;5016165;28;20506;-75
2021/03/25 11:37:13;;;;;;;14.35;8.57;;;18.10;99.90;;;;;;5016922;28;20287;-75
2021/03/25 11:40:13;;;;;;;11.15;7.90;;;18.30;99.90;;;;;;5033279;28;20183;-75
2021/03/25 11:42:46;;;;;;;8.30;7.50;;;18.80;99.90;;;;;;5015644;28;20276;-76
2021/03/25 11:45:39;;;;;;;11.65;8.43;;;19.20;99.90;;;;;;5014722;28;20271;-75
2021/03/25 11:48:19;;;;;;;9.90;8.50;;;18.60;99.90;;;;;;5033577;28;20257;-75
2021/03/25 11:50:46;;;;;;;11.18;9.95;;;17.80;99.90;;;;;;5015839;28;20667;-75
2021/03/25 11:53:33;;;;;;;10.73;9.65;;;17.10;99.90;;;;;;5031965;28;20262;-75
2021/03/25 11:55:59;;;;;;;10.90;9.55;;;16.50;99.90;;;;;;5033943;28;20621;-75
2021/03/25 11:58:25;;;;;;;10.63;9.70;;;16.20;99.90;;;;;;5033468;28;20180;-75
2021/03/25 12:01:04;;;;;;;11.48;9.63;;;15.70;99.90;;;;;;5016499;28;20659;-76
2021/03/25 12:03:44;;;;;;;12.10;9.18;;;15.50;99.90;;;;;;5031342;28;20203;-77
2021/03/25 12:06:20;;;;;;;10.38;8.82;;;15.40;99.90;;;;;;5033718;28;20191;-75
2021/03/25 12:08:46;;;;;;;10.40;9.40;;;15.20;99.90;;;;;;5034316;28;20159;-75
2021/03/25 12:11:13;;;;;;;9.68;8.75;;;15.10;99.90;;;;;;5034023;28;20179;-75
2021/03/25 12:13:39;;;;;;;10.20;8.95;;;15.00;99.90;;;;;;5016046;28;20176;-76
2021/03/25 12:16:07;;;;;;;17.48;8.40;;;14.80;99.90;;;;;;5033770;28;20697;-77
2021/03/25 12:18:40;;;;;;;15.00;9.60;;;14.70;99.90;;;;;;5028884;28;20179;-77
2021/03/25 12:21:09;;;;;;;11.25;9.65;;;14.40;99.90;;;;;;5033789;28;20207;-77
2021/03/25 12:23:37;;;;;;;18.15;10.40;;;14.40;99.90;;;;;;5016337;28;20179;-76
2021/03/25 12:26:06;;;;;;;10.05;9.07;;;14.60;99.90;;;;;;5015870;28;20298;-76
2021/03/25 12:28:32;;;;;;;11.35;9.20;;;15.30;99.90;;;;;;5016382;28;20199;-77
2021/03/25 12:30:58;;;;;;;11.85;9.55;;;16.60;99.90;;;;;;5033602;28;20172;-77
2021/03/25 12:33:33;;;;;;;9.60;8.63;;;17.30;99.90;;;;;;5016044;28;20309;-76
2021/03/25 12:36:00;;;;;;;12.68;8.57;;;17.80;99.90;;;;;;5033383;28;20325;-76
2021/03/25 12:38:27;;;;;;;15.10;9.00;;;17.80;99.90;;;;;;5032094;28;20180;-75
2021/03/25 12:40:52;;;;;;;9.90;9.05;;;17.50;99.90;;;;;;5033200;28;20640;-75
2021/03/25 12:43:22;;;;;;;10.43;9.43;;;17.00;99.90;;;;;;5032890;28;20186;-76
2021/03/25 12:45:51;;;;;;;10.70;9.13;;;16.70;99.90;;;;;;5015460;28;20180;-75
2021/03/25 12:48:20;;;;;;;12.45;9.90;;;16.30;99.90;;;;;;5032618;28;20211;-76
2021/03/25 12:50:46;;;;;;;11.27;10.07;;;16.10;99.90;;;;;;5032849;28;20172;-77
2021/03/25 12:53:12;;;;;;;15.38;9.55;;;15.80;99.90;;;;;;5033570;28;20211;-76
2021/03/25 12:55:39;;;;;;;11.27;10.10;;;15.70;99.90;;;;;;5033697;28;20192;-76
2021/03/25 12:58:05;;;;;;;11.63;10.43;;;16.00;99.90;;;;;;5033202;28;20188;-77
2021/03/25 13:00:39;;;;;;;10.10;9.27;;;16.20;99.90;;;;;;5032463;28;20179;-76
2021/03/25 13:03:07;;;;;;;8.27;7.35;;;16.30;99.90;;;;;;5033378;28;20254;-76
2021/03/25 13:05:33;;;;;;;12.65;8.90;;;16.40;99.90;;;;;;5033479;28;20636;-76
2021/03/25 13:07:59;;;;;;;10.13;8.68;;;16.30;99.90;;;;;;5032886;28;20294;-75